sensor_id;sensor_type;location;lat;lon;timestamp;P1;durP1;ratioP1;P2;durP2;ratioP2
7166;SDS011;3625;51.762;14.320;2022-12-07T00:01:44;5.00;;;4.60;;
7166;SDS011;3625;51.762;14.320;2022-12-07T00:04:15;5.17;;;4.73;;
7166;SDS011;3625;51.762;14.320;2022-12-07T00:06:45;5.13;;;4.67;;
7166;SDS011;3625;51.762;14.320;2022-12-07T00:09:18;5.23;;;4.80;;
7166;SDS011;3625;51.762;14.320;2022-12-07T00:11:49;5.33;;;4.83;;
7166;SDS011;3625;51.762;14.320;2022-12-07T00:14:19;5.43;;;4.93;;
7166;SDS011;3625;51.762;14.320;2022-12-07T00:16:48;5.53;;;5.03;;
7166;SDS011;3625;51.762;14.320;2022-12-07T00:19:18;4.83;;;4.43;;
7166;SDS011;3625;51.762;14.320;2022-12-07T00:21:47;5.27;;;4.87;;
7166;SDS011;3625;51.762;14.320;2022-12-07T00:24:16;5.40;;;4.90;;
7166;SDS011;3625;51.762;14.320;2022-12-07T00:26:45;8.27;;;5.80;;
7166;SDS011;3625;51.762;14.320;2022-12-07T00:29:16;6.83;;;5.47;;
7166;SDS011;3625;51.762;14.320;2022-12-07T00:31:47;5.23;;;4.73;;
7166;SDS011;3625;51.762;14.320;2022-12-07T00:34:17;5.23;;;4.70;;
7166;SDS011;3625;51.762;14.320;2022-12-07T00:36:48;6.97;;;5.20;;
7166;SDS011;3625;51.762;14.320;2022-12-07T00:39:18;6.07;;;5.47;;
7166;SDS011;3625;51.762;14.320;2022-12-07T00:41:46;5.73;;;5.23;;
7166;SDS011;3625;51.762;14.320;2022-12-07T00:44:16;6.87;;;6.17;;
7166;SDS011;3625;51.762;14.320;2022-12-07T00:46:45;7.27;;;5.77;;
7166;SDS011;3625;51.762;14.320;2022-12-07T00:49:13;6.73;;;6.07;;
7166;SDS011;3625;51.762;14.320;2022-12-07T00:51:42;6.30;;;5.70;;
7166;SDS011;3625;51.762;14.320;2022-12-07T00:54:11;6.33;;;5.63;;
7166;SDS011;3625;51.762;14.320;2022-12-07T00:56:39;5.70;;;5.17;;
7166;SDS011;3625;51.762;14.320;2022-12-07T00:59:10;6.53;;;5.60;;
7166;SDS011;3625;51.762;14.320;2022-12-07T01:01:43;6.07;;;5.20;;
7166;SDS011;3625;51.762;14.320;2022-12-07T01:04:11;6.13;;;5.50;;
7166;SDS011;3625;51.762;14.320;2022-12-07T01:06:40;5.73;;;5.23;;
7166;SDS011;3625;51.762;14.320;2022-12-07T01:09:08;6.60;;;5.67;;
7166;SDS011;3625;51.762;14.320;2022-12-07T01:11:37;6.00;;;5.13;;
7166;SDS011;3625;51.762;14.320;2022-12-07T01:14:06;5.50;;;5.00;;
7166;SDS011;3625;51.762;14.320;2022-12-07T01:16:36;5.87;;;5.27;;
7166;SDS011;3625;51.762;14.320;2022-12-07T01:19:07;6.30;;;5.40;;
7166;SDS011;3625;51.762;14.320;2022-12-07T01:21:36;6.13;;;5.53;;
7166;SDS011;3625;51.762;14.320;2022-12-07T01:24:06;6.83;;;5.70;;
7166;SDS011;3625;51.762;14.320;2022-12-07T01:26:38;6.17;;;5.13;;
7166;SDS011;3625;51.762;14.320;2022-12-07T01:29:07;6.80;;;5.33;;
7166;SDS011;3625;51.762;14.320;2022-12-07T01:31:36;6.20;;;5.60;;
7166;SDS011;3625;51.762;14.320;2022-12-07T01:34:04;6.80;;;5.77;;
7166;SDS011;3625;51.762;14.320;2022-12-07T01:36:35;6.20;;;5.40;;
7166;SDS011;3625;51.762;14.320;2022-12-07T01:39:04;6.57;;;5.93;;
7166;SDS011;3625;51.762;14.320;2022-12-07T01:41:35;7.30;;;6.17;;
7166;SDS011;3625;51.762;14.320;2022-12-07T01:44:14;6.40;;;5.53;;
7166;SDS011;3625;51.762;14.320;2022-12-07T01:46:47;6.80;;;5.67;;
7166;SDS011;3625;51.762;14.320;2022-12-07T01:49:23;6.07;;;5.43;;
7166;SDS011;3625;51.762;14.320;2022-12-07T01:52:03;7.93;;;6.53;;
7166;SDS011;3625;51.762;14.320;2022-12-07T01:54:41;8.10;;;6.37;;
7166;SDS011;3625;51.762;14.320;2022-12-07T01:57:11;7.70;;;6.50;;
7166;SDS011;3625;51.762;14.320;2022-12-07T01:59:42;7.10;;;5.90;;
7166;SDS011;3625;51.762;14.320;2022-12-07T02:02:15;6.60;;;5.83;;
7166;SDS011;3625;51.762;14.320;2022-12-07T02:04:49;6.73;;;6.03;;
7166;SDS011;3625;51.762;14.320;2022-12-07T02:07:21;8.20;;;6.03;;
7166;SDS011;3625;51.762;14.320;2022-12-07T02:09:52;7.27;;;6.00;;
7166;SDS011;3625;51.762;14.320;2022-12-07T02:12:20;7.10;;;6.40;;
7166;SDS011;3625;51.762;14.320;2022-12-07T02:14:52;7.80;;;5.77;;
7166;SDS011;3625;51.762;14.320;2022-12-07T02:17:22;6.13;;;5.53;;
7166;SDS011;3625;51.762;14.320;2022-12-07T02:20:11;6.20;;;5.50;;
7166;SDS011;3625;51.762;14.320;2022-12-07T02:23:04;7.10;;;6.13;;
7166;SDS011;3625;51.762;14.320;2022-12-07T02:29:40;8.97;;;5.20;;
7166;SDS011;3625;51.762;14.320;2022-12-07T02:32:18;5.13;;;4.63;;
7166;SDS011;3625;51.762;14.320;2022-12-07T02:34:55;4.80;;;4.40;;
7166;SDS011;3625;51.762;14.320;2022-12-07T02:37:34;5.17;;;4.67;;
7166;SDS011;3625;51.762;14.320;2022-12-07T02:40:12;5.37;;;4.87;;
7166;SDS011;3625;51.762;14.320;2022-12-07T02:42:48;4.50;;;4.10;;
7166;SDS011;3625;51.762;14.320;2022-12-07T02:45:27;5.50;;;4.40;;
7166;SDS011;3625;51.762;14.320;2022-12-07T02:48:00;4.70;;;4.30;;
7166;SDS011;3625;51.762;14.320;2022-12-07T02:50:29;4.80;;;4.40;;
7166;SDS011;3625;51.762;14.320;2022-12-07T02:52:58;4.83;;;4.43;;
7166;SDS011;3625;51.762;14.320;2022-12-07T02:55:28;4.50;;;4.13;;
7166;SDS011;3625;51.762;14.320;2022-12-07T02:58:06;5.17;;;4.43;;
7166;SDS011;3625;51.762;14.320;2022-12-07T03:00:54;5.57;;;5.07;;
7166;SDS011;3625;51.762;14.320;2022-12-07T03:03:36;4.60;;;4.20;;
7166;SDS011;3625;51.762;14.320;2022-12-07T03:06:09;5.00;;;4.60;;
7166;SDS011;3625;51.762;14.320;2022-12-07T03:08:50;5.67;;;5.17;;
7166;SDS011;3625;51.762;14.320;2022-12-07T03:11:34;4.77;;;4.37;;
7166;SDS011;3625;51.762;14.320;2022-12-07T03:14:15;5.17;;;4.67;;
7166;SDS011;3625;51.762;14.320;2022-12-07T03:16:53;4.23;;;3.83;;
7166;SDS011;3625;51.762;14.320;2022-12-07T03:19:30;5.13;;;4.67;;
7166;SDS011;3625;51.762;14.320;2022-12-07T03:22:03;5.20;;;4.70;;
7166;SDS011;3625;51.762;14.320;2022-12-07T03:24:37;5.27;;;4.80;;
7166;SDS011;3625;51.762;14.320;2022-12-07T03:27:13;5.00;;;4.60;;
7166;SDS011;3625;51.762;14.320;2022-12-07T03:29:48;5.53;;;5.03;;
7166;SDS011;3625;51.762;14.320;2022-12-07T03:32:25;6.17;;;5.13;;
7166;SDS011;3625;51.762;14.320;2022-12-07T03:35:02;7.33;;;6.30;;
7166;SDS011;3625;51.762;14.320;2022-12-07T03:37:37;7.30;;;6.27;;
7166;SDS011;3625;51.762;14.320;2022-12-07T03:40:13;6.67;;;6.00;;
7166;SDS011;3625;51.762;14.320;2022-12-07T03:42:50;7.70;;;6.67;;
7166;SDS011;3625;51.762;14.320;2022-12-07T03:45:22;7.00;;;6.27;;
7166;SDS011;3625;51.762;14.320;2022-12-07T03:48:02;7.83;;;6.50;;
7166;SDS011;3625;51.762;14.320;2022-12-07T03:50:45;7.93;;;6.70;;
7166;SDS011;3625;51.762;14.320;2022-12-07T03:53:22;8.23;;;7.00;;
7166;SDS011;3625;51.762;14.320;2022-12-07T03:56:01;8.60;;;7.00;;
7166;SDS011;3625;51.762;14.320;2022-12-07T03:58:31;9.33;;;7.00;;
7166;SDS011;3625;51.762;14.320;2022-12-07T04:01:01;8.27;;;6.97;;
7166;SDS011;3625;51.762;14.320;2022-12-07T04:03:31;8.43;;;7.50;;
7166;SDS011;3625;51.762;14.320;2022-12-07T04:06:00;7.83;;;6.80;;
7166;SDS011;3625;51.762;14.320;2022-12-07T04:08:29;8.23;;;7.23;;
7166;SDS011;3625;51.762;14.320;2022-12-07T04:10:57;9.10;;;7.53;;
7166;SDS011;3625;51.762;14.320;2022-12-07T04:13:26;8.17;;;7.10;;
7166;SDS011;3625;51.762;14.320;2022-12-07T04:15:55;9.20;;;7.10;;
7166;SDS011;3625;51.762;14.320;2022-12-07T04:18:24;9.10;;;7.50;;
7166;SDS011;3625;51.762;14.320;2022-12-07T04:20:54;9.50;;;7.20;;
7166;SDS011;3625;51.762;14.320;2022-12-07T04:23:22;9.30;;;7.20;;
7166;SDS011;3625;51.762;14.320;2022-12-07T04:25:51;10.03;;;7.20;;
7166;SDS011;3625;51.762;14.320;2022-12-07T04:28:19;12.50;;;7.93;;
7166;SDS011;3625;51.762;14.320;2022-12-07T04:30:47;9.93;;;7.77;;
7166;SDS011;3625;51.762;14.320;2022-12-07T04:33:16;10.33;;;7.87;;
7166;SDS011;3625;51.762;14.320;2022-12-07T04:35:45;11.20;;;7.60;;
7166;SDS011;3625;51.762;14.320;2022-12-07T04:38:15;8.67;;;7.13;;
7166;SDS011;3625;51.762;14.320;2022-12-07T04:40:44;8.30;;;7.47;;
7166;SDS011;3625;51.762;14.320;2022-12-07T04:43:12;10.73;;;8.03;;
7166;SDS011;3625;51.762;14.320;2022-12-07T04:45:44;10.13;;;8.00;;
7166;SDS011;3625;51.762;14.320;2022-12-07T04:48:14;10.50;;;7.73;;
7166;SDS011;3625;51.762;14.320;2022-12-07T04:50:43;9.47;;;7.63;;
7166;SDS011;3625;51.762;14.320;2022-12-07T04:53:16;9.70;;;7.83;;
7166;SDS011;3625;51.762;14.320;2022-12-07T04:55:44;13.83;;;8.80;;
7166;SDS011;3625;51.762;14.320;2022-12-07T04:58:13;11.10;;;9.00;;
7166;SDS011;3625;51.762;14.320;2022-12-07T05:00:42;12.30;;;8.47;;
7166;SDS011;3625;51.762;14.320;2022-12-07T05:03:11;10.77;;;8.33;;
7166;SDS011;3625;51.762;14.320;2022-12-07T05:05:40;13.13;;;10.00;;
7166;SDS011;3625;51.762;14.320;2022-12-07T05:08:08;11.53;;;8.57;;
7166;SDS011;3625;51.762;14.320;2022-12-07T05:10:39;12.57;;;10.23;;
7166;SDS011;3625;51.762;14.320;2022-12-07T05:13:07;12.30;;;9.50;;
7166;SDS011;3625;51.762;14.320;2022-12-07T05:15:36;16.53;;;10.90;;
7166;SDS011;3625;51.762;14.320;2022-12-07T05:18:04;13.37;;;9.63;;
7166;SDS011;3625;51.762;14.320;2022-12-07T05:20:33;15.03;;;10.77;;
7166;SDS011;3625;51.762;14.320;2022-12-07T05:23:07;15.03;;;10.63;;
7166;SDS011;3625;51.762;14.320;2022-12-07T05:25:36;15.13;;;11.03;;
7166;SDS011;3625;51.762;14.320;2022-12-07T05:28:07;15.73;;;11.17;;
7166;SDS011;3625;51.762;14.320;2022-12-07T05:30:35;14.90;;;11.30;;
7166;SDS011;3625;51.762;14.320;2022-12-07T05:33:04;17.27;;;11.67;;
7166;SDS011;3625;51.762;14.320;2022-12-07T05:35:33;18.20;;;10.80;;
7166;SDS011;3625;51.762;14.320;2022-12-07T05:38:01;15.30;;;11.20;;
7166;SDS011;3625;51.762;14.320;2022-12-07T05:40:30;18.90;;;12.37;;
7166;SDS011;3625;51.762;14.320;2022-12-07T05:43:00;16.83;;;11.97;;
7166;SDS011;3625;51.762;14.320;2022-12-07T05:45:30;16.93;;;12.87;;
7166;SDS011;3625;51.762;14.320;2022-12-07T05:47:59;16.57;;;12.53;;
7166;SDS011;3625;51.762;14.320;2022-12-07T05:50:27;17.07;;;12.03;;
7166;SDS011;3625;51.762;14.320;2022-12-07T05:52:59;16.33;;;11.87;;
7166;SDS011;3625;51.762;14.320;2022-12-07T05:55:27;20.45;;;14.85;;
7166;SDS011;3625;51.762;14.320;2022-12-07T05:57:56;20.80;;;12.43;;
7166;SDS011;3625;51.762;14.320;2022-12-07T06:00:43;18.63;;;12.63;;
7166;SDS011;3625;51.762;14.320;2022-12-07T06:03:16;18.73;;;13.87;;
7166;SDS011;3625;51.762;14.320;2022-12-07T06:05:45;17.97;;;13.53;;
7166;SDS011;3625;51.762;14.320;2022-12-07T06:08:14;18.17;;;12.87;;
7166;SDS011;3625;51.762;14.320;2022-12-07T06:10:43;17.13;;;12.43;;
7166;SDS011;3625;51.762;14.320;2022-12-07T06:13:33;17.70;;;11.63;;
7166;SDS011;3625;51.762;14.320;2022-12-07T06:16:03;18.00;;;12.87;;
7166;SDS011;3625;51.762;14.320;2022-12-07T06:18:32;17.90;;;13.07;;
7166;SDS011;3625;51.762;14.320;2022-12-07T06:21:01;18.93;;;13.97;;
7166;SDS011;3625;51.762;14.320;2022-12-07T06:23:29;16.97;;;12.60;;
7166;SDS011;3625;51.762;14.320;2022-12-07T06:25:58;19.37;;;12.87;;
7166;SDS011;3625;51.762;14.320;2022-12-07T06:28:27;17.33;;;12.90;;
7166;SDS011;3625;51.762;14.320;2022-12-07T06:30:56;17.17;;;11.77;;
7166;SDS011;3625;51.762;14.320;2022-12-07T06:33:27;16.10;;;11.70;;
7166;SDS011;3625;51.762;14.320;2022-12-07T06:35:56;16.07;;;12.40;;
7166;SDS011;3625;51.762;14.320;2022-12-07T06:38:25;18.23;;;13.17;;
7166;SDS011;3625;51.762;14.320;2022-12-07T06:40:53;17.33;;;13.20;;
7166;SDS011;3625;51.762;14.320;2022-12-07T06:43:21;17.97;;;13.27;;
7166;SDS011;3625;51.762;14.320;2022-12-07T06:45:50;18.27;;;13.27;;
7166;SDS011;3625;51.762;14.320;2022-12-07T06:48:19;16.07;;;12.13;;
7166;SDS011;3625;51.762;14.320;2022-12-07T06:50:49;21.00;;;12.73;;
7166;SDS011;3625;51.762;14.320;2022-12-07T06:53:20;15.23;;;12.40;;
7166;SDS011;3625;51.762;14.320;2022-12-07T06:55:50;16.33;;;12.40;;
7166;SDS011;3625;51.762;14.320;2022-12-07T06:58:18;16.70;;;12.13;;
7166;SDS011;3625;51.762;14.320;2022-12-07T07:00:47;15.17;;;12.23;;
7166;SDS011;3625;51.762;14.320;2022-12-07T07:03:16;14.83;;;11.33;;
7166;SDS011;3625;51.762;14.320;2022-12-07T07:05:45;16.40;;;12.20;;
7166;SDS011;3625;51.762;14.320;2022-12-07T07:08:15;18.23;;;12.47;;
7166;SDS011;3625;51.762;14.320;2022-12-07T07:10:48;16.80;;;12.53;;
7166;SDS011;3625;51.762;14.320;2022-12-07T07:13:17;14.00;;;11.30;;
7166;SDS011;3625;51.762;14.320;2022-12-07T07:15:46;15.33;;;11.87;;
7166;SDS011;3625;51.762;14.320;2022-12-07T07:18:14;16.17;;;12.43;;
7166;SDS011;3625;51.762;14.320;2022-12-07T07:20:43;16.43;;;11.67;;
7166;SDS011;3625;51.762;14.320;2022-12-07T07:23:11;14.80;;;10.90;;
7166;SDS011;3625;51.762;14.320;2022-12-07T07:25:41;15.47;;;11.30;;
7166;SDS011;3625;51.762;14.320;2022-12-07T07:28:10;15.97;;;11.67;;
7166;SDS011;3625;51.762;14.320;2022-12-07T07:30:38;13.57;;;11.00;;
7166;SDS011;3625;51.762;14.320;2022-12-07T07:33:09;18.83;;;12.13;;
7166;SDS011;3625;51.762;14.320;2022-12-07T07:35:38;13.03;;;10.77;;
7166;SDS011;3625;51.762;14.320;2022-12-07T07:38:07;15.03;;;11.60;;
7166;SDS011;3625;51.762;14.320;2022-12-07T07:40:36;17.30;;;11.70;;
7166;SDS011;3625;51.762;14.320;2022-12-07T07:43:06;12.97;;;10.90;;
7166;SDS011;3625;51.762;14.320;2022-12-07T07:45:34;13.67;;;11.27;;
7166;SDS011;3625;51.762;14.320;2022-12-07T07:48:03;14.30;;;10.80;;
7166;SDS011;3625;51.762;14.320;2022-12-07T07:50:32;14.10;;;10.93;;
7166;SDS011;3625;51.762;14.320;2022-12-07T07:53:00;15.90;;;11.00;;
7166;SDS011;3625;51.762;14.320;2022-12-07T07:55:29;16.53;;;11.07;;
7166;SDS011;3625;51.762;14.320;2022-12-07T07:57:57;13.73;;;10.50;;
7166;SDS011;3625;51.762;14.320;2022-12-07T08:00:27;16.83;;;12.03;;
7166;SDS011;3625;51.762;14.320;2022-12-07T08:02:56;12.97;;;10.70;;
7166;SDS011;3625;51.762;14.320;2022-12-07T08:05:25;15.27;;;11.90;;
7166;SDS011;3625;51.762;14.320;2022-12-07T08:07:54;13.80;;;11.53;;
7166;SDS011;3625;51.762;14.320;2022-12-07T08:10:22;14.83;;;10.73;;
7166;SDS011;3625;51.762;14.320;2022-12-07T08:12:51;13.37;;;10.97;;
7166;SDS011;3625;51.762;14.320;2022-12-07T08:15:40;15.53;;;12.17;;
7166;SDS011;3625;51.762;14.320;2022-12-07T08:18:10;15.37;;;12.13;;
7166;SDS011;3625;51.762;14.320;2022-12-07T08:20:40;14.57;;;12.30;;
7166;SDS011;3625;51.762;14.320;2022-12-07T08:23:09;14.20;;;11.83;;
7166;SDS011;3625;51.762;14.320;2022-12-07T08:25:38;15.73;;;11.57;;
7166;SDS011;3625;51.762;14.320;2022-12-07T08:28:07;15.47;;;12.07;;
7166;SDS011;3625;51.762;14.320;2022-12-07T08:30:36;17.93;;;11.70;;
7166;SDS011;3625;51.762;14.320;2022-12-07T08:33:06;17.07;;;12.57;;
7166;SDS011;3625;51.762;14.320;2022-12-07T08:35:34;14.70;;;11.40;;
7166;SDS011;3625;51.762;14.320;2022-12-07T08:38:03;15.07;;;11.40;;
7166;SDS011;3625;51.762;14.320;2022-12-07T08:40:31;17.10;;;12.10;;
7166;SDS011;3625;51.762;14.320;2022-12-07T08:43:00;14.07;;;10.17;;
7166;SDS011;3625;51.762;14.320;2022-12-07T08:45:29;16.87;;;12.40;;
7166;SDS011;3625;51.762;14.320;2022-12-07T08:48:02;13.17;;;10.97;;
7166;SDS011;3625;51.762;14.320;2022-12-07T08:50:37;15.27;;;11.60;;
7166;SDS011;3625;51.762;14.320;2022-12-07T08:53:14;12.57;;;10.83;;
7166;SDS011;3625;51.762;14.320;2022-12-07T08:55:44;15.23;;;11.60;;
7166;SDS011;3625;51.762;14.320;2022-12-07T08:58:13;13.20;;;10.77;;
7166;SDS011;3625;51.762;14.320;2022-12-07T09:00:42;16.53;;;12.27;;
7166;SDS011;3625;51.762;14.320;2022-12-07T09:03:12;13.10;;;11.03;;
7166;SDS011;3625;51.762;14.320;2022-12-07T09:05:41;13.17;;;10.53;;
7166;SDS011;3625;51.762;14.320;2022-12-07T09:08:10;15.50;;;11.03;;
7166;SDS011;3625;51.762;14.320;2022-12-07T09:10:39;13.90;;;10.73;;
7166;SDS011;3625;51.762;14.320;2022-12-07T09:13:08;17.77;;;11.63;;
7166;SDS011;3625;51.762;14.320;2022-12-07T09:15:36;14.77;;;11.10;;
7166;SDS011;3625;51.762;14.320;2022-12-07T09:18:05;14.33;;;11.63;;
7166;SDS011;3625;51.762;14.320;2022-12-07T09:20:35;17.07;;;11.00;;
7166;SDS011;3625;51.762;14.320;2022-12-07T09:23:04;13.30;;;11.23;;
7166;SDS011;3625;51.762;14.320;2022-12-07T09:25:33;11.73;;;10.03;;
7166;SDS011;3625;51.762;14.320;2022-12-07T09:28:02;12.30;;;10.43;;
7166;SDS011;3625;51.762;14.320;2022-12-07T09:30:31;12.07;;;10.10;;
7166;SDS011;3625;51.762;14.320;2022-12-07T09:33:20;14.47;;;10.97;;
7166;SDS011;3625;51.762;14.320;2022-12-07T09:35:51;10.90;;;9.30;;
7166;SDS011;3625;51.762;14.320;2022-12-07T09:38:19;12.10;;;10.00;;
7166;SDS011;3625;51.762;14.320;2022-12-07T09:40:48;14.77;;;11.70;;
7166;SDS011;3625;51.762;14.320;2022-12-07T09:43:18;12.63;;;10.30;;
7166;SDS011;3625;51.762;14.320;2022-12-07T09:45:50;11.20;;;9.20;;
7166;SDS011;3625;51.762;14.320;2022-12-07T09:48:22;14.13;;;10.03;;
7166;SDS011;3625;51.762;14.320;2022-12-07T09:50:59;12.30;;;9.57;;
7166;SDS011;3625;51.762;14.320;2022-12-07T09:53:30;14.40;;;9.97;;
7166;SDS011;3625;51.762;14.320;2022-12-07T09:56:03;12.47;;;10.43;;
7166;SDS011;3625;51.762;14.320;2022-12-07T09:58:32;11.53;;;8.73;;
7166;SDS011;3625;51.762;14.320;2022-12-07T10:01:05;13.10;;;10.33;;
7166;SDS011;3625;51.762;14.320;2022-12-07T10:03:42;10.57;;;8.90;;
7166;SDS011;3625;51.762;14.320;2022-12-07T10:06:19;10.73;;;9.00;;
7166;SDS011;3625;51.762;14.320;2022-12-07T10:08:48;10.40;;;9.27;;
7166;SDS011;3625;51.762;14.320;2022-12-07T10:11:17;12.67;;;9.80;;
7166;SDS011;3625;51.762;14.320;2022-12-07T10:13:46;9.27;;;8.27;;
7166;SDS011;3625;51.762;14.320;2022-12-07T10:16:29;9.97;;;8.93;;
7166;SDS011;3625;51.762;14.320;2022-12-07T10:19:18;10.00;;;8.40;;
7166;SDS011;3625;51.762;14.320;2022-12-07T10:22:03;9.67;;;8.07;;
7166;SDS011;3625;51.762;14.320;2022-12-07T10:24:38;9.07;;;8.17;;
7166;SDS011;3625;51.762;14.320;2022-12-07T10:27:17;8.60;;;7.63;;
7166;SDS011;3625;51.762;14.320;2022-12-07T10:29:48;8.60;;;7.70;;
7166;SDS011;3625;51.762;14.320;2022-12-07T10:32:31;11.20;;;8.77;;
7166;SDS011;3625;51.762;14.320;2022-12-07T10:35:18;12.83;;;8.83;;
7166;SDS011;3625;51.762;14.320;2022-12-07T10:37:52;8.50;;;7.60;;
7166;SDS011;3625;51.762;14.320;2022-12-07T10:40:26;9.73;;;7.93;;
7166;SDS011;3625;51.762;14.320;2022-12-07T10:43:01;7.80;;;7.00;;
7166;SDS011;3625;51.762;14.320;2022-12-07T10:45:32;8.10;;;7.10;;
7166;SDS011;3625;51.762;14.320;2022-12-07T10:48:30;8.97;;;7.57;;
7166;SDS011;3625;51.762;14.320;2022-12-07T10:51:11;8.57;;;7.20;;
7166;SDS011;3625;51.762;14.320;2022-12-07T10:53:54;7.07;;;6.37;;
7166;SDS011;3625;51.762;14.320;2022-12-07T11:00:00;8.63;;;7.80;;
7166;SDS011;3625;51.762;14.320;2022-12-07T11:02:42;7.73;;;6.93;;
7166;SDS011;3625;51.762;14.320;2022-12-07T11:05:32;6.97;;;6.20;;
7166;SDS011;3625;51.762;14.320;2022-12-07T11:08:14;7.73;;;6.30;;
7166;SDS011;3625;51.762;14.320;2022-12-07T11:11:09;6.73;;;5.50;;
7166;SDS011;3625;51.762;14.320;2022-12-07T11:13:44;6.70;;;5.80;;
7166;SDS011;3625;51.762;14.320;2022-12-07T11:16:25;6.63;;;6.03;;
7166;SDS011;3625;51.762;14.320;2022-12-07T11:19:15;7.73;;;6.30;;
7166;SDS011;3625;51.762;14.320;2022-12-07T11:22:00;6.43;;;5.80;;
7166;SDS011;3625;51.762;14.320;2022-12-07T11:24:39;6.37;;;5.43;;
7166;SDS011;3625;51.762;14.320;2022-12-07T11:27:21;6.00;;;5.03;;
7166;SDS011;3625;51.762;14.320;2022-12-07T11:30:08;5.77;;;5.17;;
7166;SDS011;3625;51.762;14.320;2022-12-07T11:32:47;7.13;;;4.93;;
7166;SDS011;3625;51.762;14.320;2022-12-07T11:35:43;4.70;;;4.30;;
7166;SDS011;3625;51.762;14.320;2022-12-07T11:38:26;5.23;;;4.73;;
7166;SDS011;3625;51.762;14.320;2022-12-07T11:41:09;6.53;;;5.23;;
7166;SDS011;3625;51.762;14.320;2022-12-07T11:43:50;6.00;;;5.03;;
7166;SDS011;3625;51.762;14.320;2022-12-07T11:46:27;5.37;;;4.87;;
7166;SDS011;3625;51.762;14.320;2022-12-07T11:49:12;5.97;;;5.00;;
7166;SDS011;3625;51.762;14.320;2022-12-07T11:51:48;5.23;;;4.77;;
7166;SDS011;3625;51.762;14.320;2022-12-07T11:54:26;5.37;;;4.87;;
7166;SDS011;3625;51.762;14.320;2022-12-07T11:57:03;5.17;;;4.77;;
7166;SDS011;3625;51.762;14.320;2022-12-07T11:59:47;4.90;;;3.90;;
7166;SDS011;3625;51.762;14.320;2022-12-07T12:02:22;5.83;;;4.50;;
7166;SDS011;3625;51.762;14.320;2022-12-07T12:05:02;5.20;;;4.70;;
7166;SDS011;3625;51.762;14.320;2022-12-07T12:07:42;6.23;;;4.77;;
7166;SDS011;3625;51.762;14.320;2022-12-07T12:10:36;5.67;;;4.43;;
7166;SDS011;3625;51.762;14.320;2022-12-07T12:17:16;4.97;;;4.13;;
7166;SDS011;3625;51.762;14.320;2022-12-07T12:20:16;4.17;;;3.87;;
7166;SDS011;3625;51.762;14.320;2022-12-07T12:22:55;5.33;;;3.90;;
7166;SDS011;3625;51.762;14.320;2022-12-07T12:25:36;4.00;;;3.60;;
7166;SDS011;3625;51.762;14.320;2022-12-07T12:28:18;4.30;;;3.90;;
7166;SDS011;3625;51.762;14.320;2022-12-07T12:31:04;4.33;;;3.90;;
7166;SDS011;3625;51.762;14.320;2022-12-07T12:33:44;4.40;;;3.73;;
7166;SDS011;3625;51.762;14.320;2022-12-07T12:36:20;3.50;;;3.20;;
7166;SDS011;3625;51.762;14.320;2022-12-07T12:39:07;5.53;;;3.50;;
7166;SDS011;3625;51.762;14.320;2022-12-07T12:41:59;3.67;;;3.37;;
7166;SDS011;3625;51.762;14.320;2022-12-07T12:47:53;4.53;;;4.00;;
7166;SDS011;3625;51.762;14.320;2022-12-07T12:50:27;3.73;;;3.10;;
7166;SDS011;3625;51.762;14.320;2022-12-07T12:53:03;5.70;;;4.10;;
7166;SDS011;3625;51.762;14.320;2022-12-07T12:59:21;6.60;;;3.70;;
7166;SDS011;3625;51.762;14.320;2022-12-07T13:01:54;4.23;;;3.83;;
7166;SDS011;3625;51.762;14.320;2022-12-07T13:10:35;4.57;;;3.87;;
7166;SDS011;3625;51.762;14.320;2022-12-07T13:13:31;6.20;;;4.10;;
7166;SDS011;3625;51.762;14.320;2022-12-07T13:22:37;4.03;;;3.67;;
7166;SDS011;3625;51.762;14.320;2022-12-07T13:25:22;5.70;;;3.90;;
7166;SDS011;3625;51.762;14.320;2022-12-07T13:28:09;4.10;;;3.70;;
7166;SDS011;3625;51.762;14.320;2022-12-07T13:30:54;3.97;;;3.47;;
7166;SDS011;3625;51.762;14.320;2022-12-07T13:33:39;5.57;;;4.00;;
7166;SDS011;3625;51.762;14.320;2022-12-07T13:36:14;5.13;;;3.70;;
7166;SDS011;3625;51.762;14.320;2022-12-07T13:38:51;4.10;;;3.70;;
7166;SDS011;3625;51.762;14.320;2022-12-07T13:41:25;6.03;;;4.27;;
7166;SDS011;3625;51.762;14.320;2022-12-07T13:43:59;4.77;;;3.60;;
7166;SDS011;3625;51.762;14.320;2022-12-07T13:46:35;4.63;;;3.83;;
7166;SDS011;3625;51.762;14.320;2022-12-07T13:49:20;8.77;;;4.57;;
7166;SDS011;3625;51.762;14.320;2022-12-07T13:51:51;6.13;;;4.40;;
7166;SDS011;3625;51.762;14.320;2022-12-07T13:54:22;6.90;;;4.30;;
7166;SDS011;3625;51.762;14.320;2022-12-07T13:56:52;7.03;;;4.57;;
7166;SDS011;3625;51.762;14.320;2022-12-07T13:59:21;6.17;;;5.03;;
7166;SDS011;3625;51.762;14.320;2022-12-07T14:01:53;5.60;;;4.60;;
7166;SDS011;3625;51.762;14.320;2022-12-07T14:04:32;5.03;;;4.23;;
7166;SDS011;3625;51.762;14.320;2022-12-07T14:07:18;5.03;;;4.30;;
7166;SDS011;3625;51.762;14.320;2022-12-07T14:09:54;4.90;;;4.40;;
7166;SDS011;3625;51.762;14.320;2022-12-07T14:12:28;6.57;;;4.87;;
7166;SDS011;3625;51.762;14.320;2022-12-07T14:14:59;4.87;;;4.40;;
7166;SDS011;3625;51.762;14.320;2022-12-07T14:17:29;7.53;;;4.67;;
7166;SDS011;3625;51.762;14.320;2022-12-07T14:19:58;4.50;;;4.10;;
7166;SDS011;3625;51.762;14.320;2022-12-07T14:22:29;5.13;;;4.30;;
7166;SDS011;3625;51.762;14.320;2022-12-07T14:27:55;4.87;;;4.20;;
7166;SDS011;3625;51.762;14.320;2022-12-07T14:30:27;4.50;;;4.10;;
7166;SDS011;3625;51.762;14.320;2022-12-07T14:32:58;4.60;;;4.20;;
7166;SDS011;3625;51.762;14.320;2022-12-07T14:35:30;4.93;;;3.70;;
7166;SDS011;3625;51.762;14.320;2022-12-07T14:37:59;4.43;;;4.03;;
7166;SDS011;3625;51.762;14.320;2022-12-07T14:40:28;4.33;;;3.93;;
7166;SDS011;3625;51.762;14.320;2022-12-07T14:43:00;3.73;;;3.40;;
7166;SDS011;3625;51.762;14.320;2022-12-07T14:45:31;5.60;;;3.90;;
7166;SDS011;3625;51.762;14.320;2022-12-07T14:48:00;4.63;;;3.50;;
7166;SDS011;3625;51.762;14.320;2022-12-07T14:50:49;3.97;;;3.57;;
7166;SDS011;3625;51.762;14.320;2022-12-07T14:53:41;3.30;;;3.03;;
7166;SDS011;3625;51.762;14.320;2022-12-07T14:56:20;3.17;;;2.97;;
7166;SDS011;3625;51.762;14.320;2022-12-07T14:58:50;4.50;;;3.40;;
7166;SDS011;3625;51.762;14.320;2022-12-07T15:01:19;3.40;;;3.13;;
7166;SDS011;3625;51.762;14.320;2022-12-07T15:03:47;3.47;;;3.27;;
7166;SDS011;3625;51.762;14.320;2022-12-07T15:06:17;6.90;;;4.30;;
7166;SDS011;3625;51.762;14.320;2022-12-07T15:08:46;3.90;;;3.50;;
7166;SDS011;3625;51.762;14.320;2022-12-07T15:11:15;3.90;;;3.60;;
7166;SDS011;3625;51.762;14.320;2022-12-07T15:13:45;5.27;;;4.30;;
7166;SDS011;3625;51.762;14.320;2022-12-07T15:16:33;7.70;;;5.10;;
7166;SDS011;3625;51.762;14.320;2022-12-07T15:19:24;5.00;;;4.50;;
7166;SDS011;3625;51.762;14.320;2022-12-07T15:21:55;4.43;;;4.00;;
7166;SDS011;3625;51.762;14.320;2022-12-07T15:24:26;4.50;;;4.10;;
7166;SDS011;3625;51.762;14.320;2022-12-07T15:26:55;3.93;;;3.63;;
7166;SDS011;3625;51.762;14.320;2022-12-07T15:29:24;11.47;;;4.73;;
7166;SDS011;3625;51.762;14.320;2022-12-07T15:31:54;5.30;;;3.90;;
7166;SDS011;3625;51.762;14.320;2022-12-07T15:34:24;6.63;;;4.03;;
7166;SDS011;3625;51.762;14.320;2022-12-07T15:37:04;5.23;;;4.20;;
7166;SDS011;3625;51.762;14.320;2022-12-07T15:39:33;6.13;;;4.23;;
7166;SDS011;3625;51.762;14.320;2022-12-07T15:42:03;5.63;;;4.60;;
7166;SDS011;3625;51.762;14.320;2022-12-07T15:44:32;6.60;;;5.07;;
7166;SDS011;3625;51.762;14.320;2022-12-07T15:47:19;5.10;;;4.60;;
7166;SDS011;3625;51.762;14.320;2022-12-07T15:49:48;8.17;;;5.23;;
7166;SDS011;3625;51.762;14.320;2022-12-07T15:52:17;5.10;;;4.60;;
7166;SDS011;3625;51.762;14.320;2022-12-07T15:54:45;7.47;;;5.30;;
7166;SDS011;3625;51.762;14.320;2022-12-07T15:57:14;6.87;;;5.40;;
7166;SDS011;3625;51.762;14.320;2022-12-07T15:59:50;5.27;;;4.70;;
7166;SDS011;3625;51.762;14.320;2022-12-07T16:02:21;5.37;;;4.87;;
7166;SDS011;3625;51.762;14.320;2022-12-07T16:04:50;6.93;;;5.63;;